createdAt,value
2023-04-19T00:00:45.758Z,12.00
2023-04-19T00:03:53.400Z,14.25
2023-04-19T00:06:57.053Z,13.25
2023-04-19T00:09:59.785Z,11.75
2023-04-19T00:13:02.726Z,12.25
2023-04-19T00:16:06.255Z,14.00
2023-04-19T00:19:09.516Z,14.75
2023-04-19T00:22:12.337Z,13.75
2023-04-19T00:25:14.860Z,15.25
2023-04-19T00:28:17.601Z,13.50
2023-04-19T00:31:20.034Z,13.00
2023-04-19T00:34:22.886Z,14.25
2023-04-19T00:37:25.282Z,10.25
2023-04-19T00:40:28.790Z,15.50
2023-04-19T00:43:31.313Z,14.75
2023-04-19T00:46:34.286Z,13.50
2023-04-19T00:49:36.878Z,10.25
2023-04-19T00:52:40.316Z,18.50
2023-04-19T00:55:43.425Z,15.00
2023-04-19T00:58:46.730Z,14.25
2023-04-19T01:01:49.165Z,13.75
2023-04-19T01:04:53.112Z,17.50
2023-04-19T01:07:55.495Z,14.25
2023-04-19T01:10:58.386Z,15.75
2023-04-19T01:14:00.723Z,17.50
2023-04-19T01:17:03.736Z,16.25
2023-04-19T01:20:08.301Z,14.00
2023-04-19T01:23:13.787Z,15.00
2023-04-19T01:26:16.556Z,18.25
2023-04-19T01:29:21.052Z,19.25
2023-04-19T01:32:23.538Z,18.50
2023-04-19T01:35:26.505Z,15.50
2023-04-19T01:38:29.030Z,14.25
2023-04-19T01:41:32.624Z,16.75
2023-04-19T01:44:35.058Z,15.50
2023-04-19T01:47:37.783Z,20.75
2023-04-19T01:50:40.186Z,16.75
2023-04-19T01:53:43.142Z,13.25
2023-04-19T01:56:45.815Z,16.50
2023-04-19T01:59:48.619Z,17.00
2023-04-19T02:02:51.355Z,14.50
2023-04-19T02:05:54.094Z,17.50
2023-04-19T02:08:57.883Z,15.50
2023-04-19T02:12:00.549Z,16.50
2023-04-19T02:15:03.577Z,21.25
2023-04-19T02:18:07.240Z,13.75
2023-04-19T02:21:11.199Z,17.75
2023-04-19T02:24:14.169Z,16.50
2023-04-19T02:27:18.116Z,18.50
2023-04-19T02:30:20.888Z,17.75
2023-04-19T02:33:23.632Z,17.50
2023-04-19T02:36:26.831Z,18.00
2023-04-19T02:39:30.681Z,18.25
2023-04-19T02:42:33.618Z,19.00
2023-04-19T02:45:37.456Z,19.50
2023-04-19T02:48:40.188Z,17.75
2023-04-19T02:51:42.682Z,19.50
2023-04-19T02:54:47.030Z,18.75
2023-04-19T02:57:49.544Z,17.75
2023-04-19T03:00:52.376Z,15.75
2023-04-19T03:03:57.534Z,16.50
2023-04-19T03:07:00.820Z,14.75
2023-04-19T03:10:03.663Z,19.00
2023-04-19T03:13:07.629Z,17.25
2023-04-19T03:16:10.454Z,18.25
2023-04-19T03:19:13.441Z,10.50
2023-04-19T03:22:22.546Z,17.00
2023-04-19T03:25:25.480Z,15.25
2023-04-19T03:28:36.454Z,13.75
2023-04-19T03:31:59.866Z,17.00
2023-04-19T03:35:03.371Z,16.50
2023-04-19T03:38:06.249Z,17.75
2023-04-19T03:41:19.221Z,17.50
2023-04-19T03:44:22.736Z,14.50
2023-04-19T03:47:25.243Z,14.50
2023-04-19T03:50:31.677Z,20.00
2023-04-19T03:53:35.568Z,18.50
2023-04-19T03:56:38.297Z,18.00
2023-04-19T03:59:41.683Z,18.00
2023-04-19T04:02:45.762Z,17.50
2023-04-19T04:05:49.115Z,17.75
2023-04-19T04:08:52.017Z,18.25
2023-04-19T04:11:54.472Z,13.25
2023-04-19T04:14:57.645Z,18.50
2023-04-19T04:18:01.268Z,15.25
2023-04-19T04:21:04.243Z,14.00
2023-04-19T04:24:08.187Z,17.75
2023-04-19T04:27:36.305Z,15.00
2023-04-19T04:30:41.035Z,17.00
2023-04-19T04:33:46.247Z,18.75
2023-04-19T04:36:50.864Z,18.00
2023-04-19T04:39:55.918Z,14.00
2023-04-19T04:43:01.230Z,21.00
2023-04-19T04:46:04.667Z,18.00
2023-04-19T04:49:13.648Z,22.00
2023-04-19T04:52:18.840Z,18.50
2023-04-19T04:55:50.517Z,24.00
2023-04-19T04:58:54.273Z,21.50
2023-04-19T05:02:03.411Z,22.00
2023-04-19T05:05:06.589Z,18.75
2023-04-19T05:08:08.902Z,19.00
2023-04-19T05:11:12.099Z,22.75
2023-04-19T05:14:14.914Z,18.50
2023-04-19T05:17:18.904Z,21.50
2023-04-19T05:20:21.994Z,21.75
2023-04-19T05:23:29.870Z,18.50
2023-04-19T05:26:33.238Z,19.25
2023-04-19T05:29:37.365Z,21.00
2023-04-19T05:32:40.614Z,20.75
2023-04-19T05:35:45.593Z,20.75
2023-04-19T05:38:48.031Z,19.25
2023-04-19T05:41:51.148Z,19.25
2023-04-19T05:44:53.522Z,20.75
2023-04-19T05:47:56.541Z,22.00
2023-04-19T05:51:21.832Z,20.00
2023-04-19T05:54:36.303Z,22.00
2023-04-19T05:57:40.276Z,20.25
2023-04-19T06:00:43.626Z,21.00
2023-04-19T06:03:53.741Z,23.75
2023-04-19T06:06:57.659Z,22.00
2023-04-19T06:10:00.163Z,25.25
2023-04-19T06:13:02.896Z,24.75
2023-04-19T06:16:06.028Z,24.75
2023-04-19T06:19:10.025Z,22.25
2023-04-19T06:22:12.536Z,22.50
2023-04-19T06:25:15.474Z,23.00
2023-04-19T06:28:17.903Z,24.75
2023-04-19T06:31:20.762Z,23.00
2023-04-19T06:34:23.220Z,25.00
2023-04-19T06:37:26.077Z,22.75
2023-04-19T06:40:31.926Z,26.50
2023-04-19T06:43:34.946Z,22.00
2023-04-19T06:46:37.495Z,26.75
2023-04-19T06:49:40.207Z,23.50
2023-04-19T06:52:42.696Z,23.25
2023-04-19T06:55:46.395Z,22.50
2023-04-19T06:58:48.898Z,23.50
2023-04-19T07:01:52.103Z,24.50
2023-04-19T07:04:54.508Z,18.00
2023-04-19T07:07:57.737Z,28.25
2023-04-19T07:11:00.361Z,28.00
2023-04-19T07:14:03.082Z,28.25
2023-04-19T07:17:06.289Z,26.00
2023-04-19T07:20:09.658Z,26.50
2023-04-19T07:23:12.164Z,27.75
2023-04-19T07:26:15.228Z,28.00
2023-04-19T07:29:17.956Z,26.25
2023-04-19T07:32:21.196Z,26.50
2023-04-19T07:35:23.751Z,27.50
2023-04-19T07:38:26.530Z,29.25
2023-04-19T07:41:29.219Z,27.00
2023-04-19T07:44:32.614Z,29.00
2023-04-19T07:47:35.137Z,26.00
2023-04-19T07:50:37.893Z,25.50
2023-04-19T07:53:41.949Z,25.75
2023-04-19T07:56:44.737Z,25.25
2023-04-19T07:59:47.209Z,25.25
2023-04-19T08:02:50.360Z,27.75
2023-04-19T08:05:52.962Z,25.75
2023-04-19T08:08:55.699Z,28.75
2023-04-19T08:11:58.567Z,23.50
2023-04-19T08:15:09.890Z,27.75
2023-04-19T08:18:22.866Z,25.25
2023-04-19T08:21:34.679Z,24.00
2023-04-19T08:24:43.871Z,27.50
2023-04-19T08:27:46.651Z,27.00
2023-04-19T08:30:49.524Z,26.75
2023-04-19T08:33:52.257Z,25.25
2023-04-19T08:37:03.205Z,24.50
2023-04-19T08:40:07.380Z,24.25
2023-04-19T08:43:09.834Z,27.50
2023-04-19T08:46:12.963Z,24.50
2023-04-19T08:49:15.727Z,27.50
2023-04-19T08:52:19.112Z,27.50
2023-04-19T08:55:21.867Z,22.75
2023-04-19T08:58:36.535Z,24.75
2023-04-19T09:01:48.794Z,24.00
2023-04-19T09:04:51.864Z,29.00
2023-04-19T09:07:54.416Z,21.75
2023-04-19T09:11:01.785Z,27.00
2023-04-19T09:14:23.087Z,31.50
2023-04-19T09:17:25.970Z,22.50
2023-04-19T09:20:37.617Z,20.50
2023-04-19T09:23:47.279Z,23.75
2023-04-19T09:26:56.223Z,26.00
2023-04-19T09:30:01.068Z,29.00
2023-04-19T09:33:03.926Z,23.00
2023-04-19T09:36:07.850Z,23.75
2023-04-19T09:39:11.052Z,26.00
2023-04-19T09:42:15.703Z,19.00
2023-04-19T09:48:23.808Z,22.75
2023-04-19T09:51:40.730Z,24.00
2023-04-19T09:54:43.657Z,26.00
2023-04-19T09:57:46.103Z,22.75
2023-04-19T10:00:54.994Z,18.75
2023-04-19T10:04:19.891Z,20.00
2023-04-19T10:07:30.707Z,22.75
2023-04-19T10:10:41.994Z,19.25
2023-04-19T10:13:47.643Z,23.25
2023-04-19T10:16:50.117Z,21.75
2023-04-19T10:20:07.130Z,17.50
2023-04-19T10:23:10.265Z,17.25
2023-04-19T10:26:13.075Z,20.25
2023-04-19T10:29:15.772Z,19.25
2023-04-19T10:32:18.692Z,11.00
2023-04-19T10:35:26.255Z,17.50
2023-04-19T10:38:48.284Z,20.75
2023-04-19T10:41:59.723Z,17.00
2023-04-19T10:45:34.739Z,17.00
2023-04-19T10:48:38.979Z,16.75
2023-04-19T10:51:48.744Z,20.50
2023-04-19T10:54:56.485Z,17.00
2023-04-19T10:58:05.796Z,22.00
2023-04-19T11:01:46.528Z,20.00
2023-04-19T11:04:49.376Z,21.00
2023-04-19T11:07:52.175Z,21.25
2023-04-19T11:10:57.060Z,24.25
2023-04-19T11:14:02.637Z,21.75
2023-04-19T11:17:28.533Z,26.00
2023-04-19T11:20:31.293Z,21.75
2023-04-19T11:23:34.020Z,24.25
2023-04-19T11:26:36.510Z,24.00
2023-04-19T11:29:39.259Z,22.75
2023-04-19T11:32:46.362Z,23.25
2023-04-19T11:35:49.048Z,24.25
2023-04-19T11:38:53.140Z,23.25
2023-04-19T11:41:56.609Z,21.75
2023-04-19T11:45:00.190Z,20.75
2023-04-19T11:48:07.845Z,23.00
2023-04-19T11:51:11.940Z,19.75
2023-04-19T11:54:18.568Z,19.00
2023-04-19T11:57:31.493Z,20.25
2023-04-19T12:00:34.313Z,22.75
2023-04-19T12:03:50.827Z,13.00
2023-04-19T12:07:01.622Z,23.00
2023-04-19T12:10:11.921Z,18.50
2023-04-19T12:13:18.657Z,24.50
2023-04-19T12:16:28.362Z,19.25
2023-04-19T12:19:36.601Z,18.50
2023-04-19T12:22:39.015Z,18.00
2023-04-19T12:25:42.777Z,18.75
2023-04-19T12:28:45.495Z,17.25
2023-04-19T12:31:48.189Z,20.00
2023-04-19T12:34:50.609Z,20.50
2023-04-19T12:37:54.286Z,19.75
2023-04-19T12:40:56.896Z,20.50
2023-04-19T12:43:59.596Z,20.25
2023-04-19T12:47:02.015Z,15.75
2023-04-19T12:50:05.119Z,20.75
2023-04-19T12:53:07.536Z,17.50
2023-04-19T12:56:10.417Z,18.50
2023-04-19T12:59:12.822Z,19.75
2023-04-19T13:02:15.580Z,17.25
2023-04-19T13:05:18.123Z,16.00
2023-04-19T13:08:28.246Z,16.25
2023-04-19T13:11:36.720Z,19.00
2023-04-19T13:14:39.447Z,16.75
2023-04-19T13:17:41.801Z,13.50
2023-04-19T13:20:44.502Z,21.00
2023-04-19T13:23:46.995Z,16.00
2023-04-19T13:26:49.804Z,21.75
2023-04-19T13:29:52.163Z,18.50
2023-04-19T13:32:54.934Z,19.00
2023-04-19T13:35:57.452Z,19.75
2023-04-19T13:39:00.202Z,21.25
2023-04-19T13:42:02.654Z,20.75
2023-04-19T13:45:05.907Z,19.00
2023-04-19T13:48:08.348Z,21.75
2023-04-19T13:51:11.156Z,19.75
2023-04-19T13:54:13.608Z,17.25
2023-04-19T13:57:16.566Z,13.50
2023-04-19T14:00:19.521Z,19.50
2023-04-19T14:03:23.605Z,14.00
2023-04-19T14:06:26.657Z,19.25
2023-04-19T14:09:29.390Z,20.00
2023-04-19T14:12:31.848Z,17.00
2023-04-19T14:15:34.805Z,26.25
2023-04-19T14:18:37.212Z,16.50
2023-04-19T14:21:40.009Z,18.00
2023-04-19T14:24:42.579Z,18.50
2023-04-19T14:27:45.522Z,15.75
2023-04-19T14:30:47.899Z,17.00
2023-04-19T14:33:51.837Z,21.75
2023-04-19T14:36:54.250Z,20.25
2023-04-19T14:39:57.007Z,20.50
2023-04-19T14:42:59.407Z,22.25
2023-04-19T14:46:02.186Z,19.25
2023-04-19T14:49:06.223Z,20.50
2023-04-19T14:52:09.016Z,19.75
2023-04-19T14:55:11.984Z,23.00
2023-04-19T14:58:14.718Z,25.00
2023-04-19T15:01:17.174Z,16.75
2023-04-19T15:04:20.301Z,21.00
2023-04-19T15:07:22.756Z,21.75
2023-04-19T15:10:27.929Z,19.50
2023-04-19T15:13:30.328Z,18.00
2023-04-19T15:16:33.323Z,19.75
2023-04-19T15:19:35.738Z,17.00
2023-04-19T15:22:38.550Z,24.00
2023-04-19T15:25:41.808Z,23.25
2023-04-19T15:28:44.563Z,24.50
2023-04-19T15:31:47.035Z,24.75
2023-04-19T15:34:49.756Z,18.75
2023-04-19T15:37:52.181Z,13.50
2023-04-19T15:40:56.296Z,15.25
2023-04-19T15:43:58.787Z,15.25
2023-04-19T15:47:01.670Z,14.00
2023-04-19T15:50:05.052Z,12.25
2023-04-19T15:53:09.089Z,9.75
2023-04-19T15:56:11.719Z,13.50
2023-04-19T15:59:17.322Z,16.00
2023-04-19T16:02:21.312Z,13.25
2023-04-19T16:05:24.286Z,15.50
2023-04-19T16:08:26.591Z,13.75
2023-04-19T16:11:29.893Z,13.00
2023-04-19T16:14:32.189Z,14.75
2023-04-19T16:17:35.173Z,15.00
2023-04-19T16:20:38.291Z,13.25
2023-04-19T16:23:41.314Z,12.50
2023-04-19T16:26:43.729Z,14.25
2023-04-19T16:29:46.488Z,15.00
2023-04-19T16:32:48.902Z,13.50
2023-04-19T16:35:51.895Z,11.25
2023-04-19T16:38:54.349Z,11.00
2023-04-19T16:41:56.970Z,14.00
2023-04-19T16:44:59.931Z,13.00
2023-04-19T16:48:03.232Z,12.00
2023-04-19T16:51:06.164Z,14.50
2023-04-19T16:54:10.105Z,12.25
2023-04-19T16:57:12.951Z,13.75
2023-04-19T17:00:16.376Z,14.00
2023-04-19T17:03:19.124Z,14.00
2023-04-19T17:06:22.109Z,12.75
2023-04-19T17:09:25.009Z,14.00
2023-04-19T17:12:28.162Z,13.00
2023-04-19T17:15:31.768Z,16.00
2023-04-19T17:18:35.021Z,13.00
2023-04-19T17:21:38.039Z,10.50
2023-04-19T17:24:41.508Z,13.50
2023-04-19T17:27:44.117Z,16.75
2023-04-19T17:30:47.372Z,16.00
2023-04-19T17:33:50.214Z,16.50
2023-04-19T17:36:56.608Z,17.25
2023-04-19T17:40:00.591Z,16.00
2023-04-19T17:43:03.959Z,16.00
2023-04-19T17:46:07.000Z,14.25
2023-04-19T17:49:10.526Z,12.00
2023-04-19T17:52:14.123Z,18.00
2023-04-19T17:55:18.708Z,18.00
2023-04-19T17:58:24.131Z,17.00
2023-04-19T18:01:28.158Z,16.00
2023-04-19T18:04:34.780Z,16.75
2023-04-19T18:07:39.725Z,22.00
2023-04-19T18:10:42.952Z,16.50
2023-04-19T18:13:47.082Z,22.00
2023-04-19T18:16:50.811Z,20.75
2023-04-19T18:19:55.095Z,23.00
2023-04-19T18:23:00.799Z,23.00
2023-04-19T18:26:05.203Z,24.00
2023-04-19T18:29:10.329Z,28.00
2023-04-19T18:32:17.300Z,22.50
2023-04-19T18:35:23.467Z,23.50
2023-04-19T18:38:27.900Z,24.25
2023-04-19T18:41:32.216Z,22.75
2023-04-19T18:47:48.489Z,20.75
2023-04-19T18:50:52.774Z,20.75
2023-04-19T18:53:56.788Z,23.00
2023-04-19T18:57:19.122Z,22.75
2023-04-19T19:00:25.753Z,26.75
2023-04-19T19:03:58.060Z,24.25
2023-04-19T19:06:58.342Z,34.75
2023-04-19T19:10:09.594Z,31.75
2023-04-19T19:13:24.438Z,28.75
2023-04-19T19:16:30.999Z,37.50
2023-04-19T19:19:35.423Z,33.00
2023-04-19T19:22:43.230Z,34.00
2023-04-19T19:25:50.900Z,39.75
2023-04-19T19:28:57.639Z,38.25
2023-04-19T19:32:02.853Z,39.50
2023-04-19T19:35:11.815Z,39.25
2023-04-19T19:38:15.782Z,39.75
2023-04-19T19:44:28.868Z,34.50
2023-04-19T19:47:35.668Z,30.25
2023-04-19T19:53:50.230Z,35.75
2023-04-19T19:57:31.713Z,38.00
2023-04-19T20:00:39.910Z,31.00
2023-04-19T20:03:43.589Z,36.25
2023-04-19T20:09:56.686Z,35.75
2023-04-19T20:13:02.155Z,33.50
2023-04-19T20:16:07.554Z,35.75
2023-04-19T20:19:13.039Z,33.00
2023-04-19T20:22:16.968Z,34.00
2023-04-19T20:25:20.583Z,37.00
2023-04-19T20:28:25.669Z,33.50
2023-04-19T20:31:31.636Z,37.25
2023-04-19T20:34:35.531Z,33.75
2023-04-19T20:37:45.860Z,32.25
2023-04-19T20:40:49.922Z,34.25
2023-04-19T20:43:53.338Z,33.50
2023-04-19T20:46:58.947Z,24.75
2023-04-19T20:50:03.436Z,36.00
2023-04-19T20:53:07.985Z,31.50
2023-04-19T20:56:11.660Z,36.50
2023-04-19T20:59:14.658Z,31.50
2023-04-19T21:02:17.804Z,32.25
2023-04-19T21:05:20.744Z,31.50
2023-04-19T21:08:24.535Z,36.50
2023-04-19T21:11:26.997Z,37.25
2023-04-19T21:14:38.658Z,33.50
2023-04-19T21:17:41.469Z,33.75
2023-04-19T21:20:44.222Z,37.00
2023-04-19T21:23:46.500Z,28.00
2023-04-19T21:26:49.226Z,32.00
2023-04-19T21:29:51.581Z,32.50
2023-04-19T21:32:54.325Z,29.25
2023-04-19T21:35:56.809Z,32.00
2023-04-19T21:38:59.462Z,33.50
2023-04-19T21:42:01.932Z,29.50
2023-04-19T21:45:05.136Z,33.00
2023-04-19T21:48:07.639Z,31.00
2023-04-19T21:51:11.686Z,34.00
2023-04-19T21:54:23.166Z,30.00
2023-04-19T21:57:33.684Z,34.50
2023-04-19T22:00:36.420Z,33.00
2023-04-19T22:03:39.560Z,32.00
2023-04-19T22:06:46.202Z,29.75
2023-04-19T22:09:48.907Z,30.75
2023-04-19T22:12:58.434Z,30.25
2023-04-19T22:16:02.638Z,35.50
2023-04-19T22:19:05.605Z,31.00
2023-04-19T22:22:08.295Z,32.25
2023-04-19T22:25:11.278Z,33.50
2023-04-19T22:28:14.134Z,29.00
2023-04-19T22:31:16.661Z,33.50
2023-04-19T22:34:19.341Z,36.00
2023-04-19T22:37:22.543Z,33.50
2023-04-19T22:40:25.356Z,31.75
2023-04-19T22:43:27.995Z,30.75
2023-04-19T22:46:30.939Z,27.75
2023-04-19T22:49:33.582Z,33.00
2023-04-19T22:52:36.210Z,20.00
2023-04-19T22:55:39.789Z,29.25
2023-04-19T22:58:42.394Z,33.75
2023-04-19T23:01:45.068Z,31.75
2023-04-19T23:04:49.272Z,29.75
2023-04-19T23:07:52.038Z,34.75
2023-04-19T23:10:55.256Z,24.75
2023-04-19T23:13:57.806Z,32.50
2023-04-19T23:17:02.924Z,31.00
2023-04-19T23:20:12.958Z,31.25
2023-04-19T23:23:15.673Z,28.75
2023-04-19T23:26:18.029Z,34.25
2023-04-19T23:29:20.752Z,24.25
2023-04-19T23:32:23.162Z,28.50
2023-04-19T23:35:26.053Z,26.00
2023-04-19T23:38:28.432Z,30.00
2023-04-19T23:41:31.378Z,31.25
2023-04-19T23:44:33.695Z,26.75
2023-04-19T23:47:36.337Z,30.00
2023-04-19T23:50:38.733Z,29.50
2023-04-19T23:53:41.664Z,29.25
2023-04-19T23:56:45.655Z,25.50
2023-04-19T23:59:48.445Z,20.00
